Time;durP1;ratioP1;P1;durP2;ratioP2;P2;SDS_P1;SDS_P2;PMS_P1;PMS_P2;Temp;Humidity;BMP_temperature;BMP_pressure;BME280_temperature;BME280_humidity;BME280_pressure;Samples;Min_cycle;Max_cycle;Signal;HPM_P1;HPM_P2
2021/11/06 00:01:48;;;;;;;14.70;8.75;;;;;;;10.35;73.65;101685.84;6295643;22;20003;-73
2021/11/06 00:04:14;;;;;;;12.50;9.20;;;;;;;10.28;73.08;101681.28;6299165;22;20013;-73
2021/11/06 00:06:44;;;;;;;14.45;8.18;;;;;;;10.28;73.06;101684.03;6349055;22;20018;-71
2021/11/06 00:09:10;;;;;;;14.48;8.52;;;;;;;10.25;73.67;101681.75;6309983;22;20341;-73
2021/11/06 00:11:36;;;;;;;15.50;9.00;;;;;;;10.19;73.26;101666.28;6307271;22;20010;-73
2021/11/06 00:14:02;;;;;;;14.45;7.40;;;;;;;10.21;73.33;101680.56;6334634;22;20003;-72
2021/11/06 00:16:28;;;;;;;7.57;6.13;;;;;;;10.18;72.84;101678.28;6305296;22;20038;-72
2021/11/06 00:18:54;;;;;;;7.82;7.03;;;;;;;10.14;73.10;101674.34;6306098;22;20084;-72
2021/11/06 00:21:19;;;;;;;15.18;8.20;;;;;;;10.08;73.15;101667.91;6280403;22;20015;-71
2021/11/06 00:23:45;;;;;;;9.10;7.53;;;;;;;10.06;73.35;101666.47;6307129;22;20015;-73
2021/11/06 00:26:10;;;;;;;11.88;6.97;;;;;;;10.04;73.83;101668.59;6305146;22;20006;-72
2021/11/06 00:28:36;;;;;;;14.77;9.05;;;;;;;9.99;73.64;101665.72;6305600;22;20091;-73
2021/11/06 00:31:02;;;;;;;7.50;6.10;;;;;;;9.98;73.41;101675.00;6303058;22;20086;-73
2021/11/06 00:33:27;;;;;;;14.00;7.00;;;;;;;9.94;73.38;101664.53;6332722;22;20113;-72
2021/11/06 00:35:53;;;;;;;7.53;6.50;;;;;;;9.97;73.41;101660.50;6252925;22;20007;-73
2021/11/06 00:38:18;;;;;;;8.23;5.65;;;;;;;9.94;73.59;101653.59;6302567;22;20025;-72
2021/11/06 00:40:44;;;;;;;5.18;4.45;;;;;;;9.99;73.77;101660.25;6254101;22;20015;-72
2021/11/06 00:43:09;;;;;;;9.65;4.60;;;;;;;9.98;73.39;101655.88;6306158;22;20329;-71
2021/11/06 00:45:35;;;;;;;6.38;4.70;;;;;;;9.98;73.52;101653.16;6303348;22;20002;-71
2021/11/06 00:48:00;;;;;;;12.70;5.38;;;;;;;10.02;73.42;101654.34;6332941;22;20089;-73
2021/11/06 00:50:29;;;;;;;5.88;5.47;;;;;;;9.98;73.51;101647.69;6253386;22;20010;-71
2021/11/06 00:52:54;;;;;;;7.10;5.18;;;;;;;9.98;73.43;101642.22;6278891;22;20014;-72
2021/11/06 00:55:20;;;;;;;6.75;5.88;;;;;;;10.01;73.31;101641.75;6306676;22;20056;-71
2021/11/06 00:57:52;;;;;;;11.13;6.05;;;;;;;9.96;73.54;101637.81;6329945;22;20069;-72
2021/11/06 01:00:34;;;;;;;6.65;5.35;;;;;;;10.07;73.00;101651.75;6332946;22;19998;-72
2021/11/06 01:03:00;;;;;;;14.15;6.10;;;;;;;9.94;73.11;101630.91;6332734;22;20003;-72
2021/11/06 01:05:36;;;;;;;8.82;4.93;;;;;;;9.95;73.09;101638.88;6330825;22;20128;-72
2021/11/06 01:08:01;;;;;;;;;;;;;;;10.08;72.76;101653.41;6330130;22;20003;-71
2021/11/06 01:10:32;;;;;;;6.40;5.65;;;;;;;10.01;72.90;101652.69;6332802;22;19903;-72
2021/11/06 01:12:57;;;;;;;9.77;5.00;;;;;;;10.04;73.24;101668.59;6330551;22;20056;-72
2021/11/06 01:15:23;;;;;;;13.40;5.28;;;;;;;9.95;73.36;101649.78;6332926;22;20007;-71
2021/11/06 01:17:51;;;;;;;4.85;4.45;;;;;;;10.00;73.33;101661.94;6304537;22;20374;-71
2021/11/06 01:20:24;;;;;;;7.80;4.78;;;;;;;9.92;73.10;101644.78;6330826;22;20006;-70
2021/11/06 01:22:57;;;;;;;8.02;4.45;;;;;;;9.93;73.22;101646.47;6334832;22;19998;-70
2021/11/06 01:25:23;;;;;;;5.60;4.38;;;;;;;10.00;72.82;101661.94;6320072;22;20037;-70
2021/11/06 01:27:49;;;;;;;4.50;3.70;;;;;;;9.91;72.71;101648.59;6332475;22;20014;-71
2021/11/06 01:30:16;;;;;;;7.90;4.60;;;;;;;9.96;73.01;101648.75;6332676;22;20007;-72
2021/11/06 01:32:44;;;;;;;5.32;4.05;;;;;;;10.01;73.11;101653.50;6332791;22;20003;-72
2021/11/06 01:35:09;;;;;;;8.27;4.45;;;;;;;10.00;72.69;101664.66;6332711;22;20068;-70
2021/11/06 01:37:35;;;;;;;6.47;4.38;;;;;;;10.01;72.41;101669.06;6278359;22;20023;-71
2021/11/06 01:40:01;;;;;;;5.20;4.00;;;;;;;9.95;72.93;101659.91;6330555;22;20425;-72
2021/11/06 01:42:27;;;;;;;11.75;3.90;;;;;;;10.00;72.83;101660.03;6304449;22;20026;-71
2021/11/06 01:44:53;;;;;;;5.10;4.07;;;;;;;10.02;72.85;101659.81;6305812;22;20007;-72
2021/11/06 01:47:18;;;;;;;7.50;3.50;;;;;;;10.06;72.48;101655.53;6332200;22;20009;-71
2021/11/06 01:49:44;;;;;;;6.80;4.30;;;;;;;10.03;72.61;101650.53;6303209;22;20014;-72
2021/11/06 01:52:10;;;;;;;4.47;4.07;;;;;;;10.07;72.48;101646.28;6305238;22;20570;-72
2021/11/06 01:54:35;;;;;;;4.97;4.43;;;;;;;10.02;72.32;101637.97;6304302;22;20011;-71
2021/11/06 01:57:02;;;;;;;5.38;3.58;;;;;;;10.01;72.41;101641.75;6305380;22;20060;-72
2021/11/06 01:59:27;;;;;;;8.15;3.97;;;;;;;9.99;72.19;101638.41;6333795;22;20014;-72
2021/11/06 02:01:53;;;;;;;3.22;2.90;;;;;;;10.01;72.29;101636.28;6332514;22;20015;-72
2021/11/06 02:04:18;;;;;;;4.20;3.20;;;;;;;10.02;72.79;101635.22;6330920;22;20002;-72
2021/11/06 02:06:44;;;;;;;7.10;2.97;;;;;;;10.02;72.39;101630.59;6253754;22;20018;-73
2021/11/06 02:09:09;;;;;;;3.70;2.35;;;;;;;10.06;72.22;101639.13;6333465;22;20353;-72
2021/11/06 02:11:37;;;;;;;2.65;2.45;;;;;;;10.05;72.02;101632.03;6332212;22;20337;-73
2021/11/06 02:14:03;;;;;;;4.93;3.08;;;;;;;10.05;72.54;101645.69;6331512;22;20006;-72
2021/11/06 02:16:28;;;;;;;3.35;2.53;;;;;;;10.09;72.46;101646.88;6278658;22;20052;-72
2021/11/06 02:18:54;;;;;;;3.03;2.75;;;;;;;10.05;72.02;101637.50;6303659;22;20011;-72
2021/11/06 02:21:20;;;;;;;4.75;2.30;;;;;;;10.04;72.29;101635.81;6304682;22;20283;-72
2021/11/06 02:23:49;;;;;;;6.05;2.30;;;;;;;10.08;72.11;101642.47;6253289;22;20010;-72
2021/11/06 02:26:18;;;;;;;4.65;2.42;;;;;;;10.10;72.31;101637.59;6332652;22;20082;-72
2021/11/06 02:28:53;;;;;;;3.65;2.80;;;;;;;10.05;71.72;101621.09;6332307;22;20002;-71
2021/11/06 02:31:20;;;;;;;3.13;2.40;;;;;;;10.09;71.89;101638.66;6306324;22;20006;-72
2021/11/06 02:33:48;;;;;;;5.75;3.25;;;;;;;10.05;72.08;101626.56;6275244;22;20057;-73
2021/11/06 02:36:14;;;;;;;1.45;1.35;;;;;;;10.04;71.66;101633.06;6277569;22;20115;-71
2021/11/06 02:38:41;;;;;;;2.40;2.22;;;;;;;10.00;71.98;101638.16;6306689;22;20022;-73
2021/11/06 02:41:07;;;;;;;3.75;2.97;;;;;;;10.02;71.60;101637.97;6279386;22;20009;-70
2021/11/06 02:43:33;;;;;;;5.57;3.08;;;;;;;9.94;72.18;101619.97;6305224;22;20032;-71
2021/11/06 02:45:59;;;;;;;3.53;3.22;;;;;;;9.93;71.96;101624.63;6281540;22;20007;-71
2021/11/06 02:48:24;;;;;;;2.90;2.55;;;;;;;9.92;71.83;101631.13;6252195;22;20045;-71
2021/11/06 02:50:50;;;;;;;2.88;2.67;;;;;;;9.90;72.10;101619.63;6333336;22;20011;-72
2021/11/06 02:53:16;;;;;;;2.55;2.38;;;;;;;9.89;71.95;101623.41;6332529;22;20368;-72
2021/11/06 02:55:41;;;;;;;2.72;2.45;;;;;;;9.87;72.24;101624.69;6307215;22;20007;-72
2021/11/06 02:58:07;;;;;;;3.13;2.88;;;;;;;9.86;72.73;101626.59;6306815;22;20010;-73
2021/11/06 03:00:38;;;;;;;3.38;2.03;;;;;;;9.81;71.91;101620.97;6308715;22;20022;-71
2021/11/06 03:03:03;;;;;;;3.90;2.13;;;;;;;9.71;72.19;101609.78;6333082;22;20328;-73
2021/11/06 03:05:30;;;;;;;6.13;2.22;;;;;;;9.73;72.28;101618.59;6280670;22;20007;-72
2021/11/06 03:07:56;;;;;;;2.58;2.38;;;;;;;9.72;72.48;101619.66;6335543;22;20013;-73
2021/11/06 03:10:21;;;;;;;3.63;3.08;;;;;;;9.73;72.49;101621.34;6334932;22;20021;-72
2021/11/06 03:12:48;;;;;;;2.72;2.60;;;;;;;9.56;72.51;101605.59;6334433;22;20414;-73
2021/11/06 03:15:19;;;;;;;4.55;2.70;;;;;;;9.56;72.45;101602.84;6334141;22;20021;-72
2021/11/06 03:17:44;;;;;;;8.13;3.20;;;;;;;9.51;72.85;101594.50;6305550;22;20424;-74
2021/11/06 03:20:18;;;;;;;3.95;3.30;;;;;;;9.50;72.90;101603.75;6334972;22;20007;-72
2021/11/06 03:22:44;;;;;;;2.22;2.03;;;;;;;9.47;73.35;101593.31;6335055;22;20416;-72
2021/11/06 03:25:19;;;;;;;3.78;2.58;;;;;;;9.50;73.03;101603.75;6333774;22;20006;-73
2021/11/06 03:27:47;;;;;;;2.85;2.58;;;;;;;9.52;72.80;101607.09;6336805;22;20002;-74
2021/11/06 03:30:13;;;;;;;4.82;2.63;;;;;;;9.45;73.07;101589.97;6333696;22;20060;-72
2021/11/06 03:32:46;;;;;;;3.50;2.03;;;;;;;9.44;72.80;101585.56;6334373;22;20418;-72
2021/11/06 03:35:12;;;;;;;7.07;3.00;;;;;;;9.51;73.20;101610.91;6333207;22;19999;-72
2021/11/06 03:37:40;;;;;;;2.47;2.33;;;;;;;9.56;73.31;101608.31;6299645;22;20027;-75
2021/11/06 03:40:07;;;;;;;5.03;2.40;;;;;;;9.52;73.29;101595.34;6301045;22;20007;-73
2021/11/06 03:42:45;;;;;;;3.58;2.72;;;;;;;9.48;73.14;101594.16;6303441;22;20065;-72
2021/11/06 03:45:11;;;;;;;4.22;2.30;;;;;;;9.50;73.60;101598.28;6302816;22;20014;-72
2021/11/06 03:47:37;;;;;;;9.20;3.00;;;;;;;9.54;73.55;101601.41;6305301;22;20015;-71
2021/11/06 03:50:10;;;;;;;8.43;2.47;;;;;;;9.62;73.74;101609.28;6325965;22;20411;-71
2021/11/06 03:52:41;;;;;;;2.70;2.08;;;;;;;9.66;73.66;101606.94;6302854;22;20037;-72
2021/11/06 03:55:08;;;;;;;2.95;2.65;;;;;;;9.70;73.90;101606.22;6299889;22;20425;-72
2021/11/06 03:57:34;;;;;;;4.63;3.53;;;;;;;9.75;74.06;101605.53;6303006;22;20010;-71
2021/11/06 04:00:12;;;;;;;5.88;2.53;;;;;;;9.75;74.40;101600.91;6301209;22;20364;-71
2021/11/06 04:02:37;;;;;;;2.90;2.60;;;;;;;9.81;73.85;101609.22;6301469;22;19996;-71
2021/11/06 04:05:06;;;;;;;2.70;2.28;;;;;;;9.87;74.13;101608.31;6299913;22;20018;-73
2021/11/06 04:07:31;;;;;;;2.97;2.78;;;;;;;9.90;74.24;101603.22;6301389;22;20068;-72
2021/11/06 04:09:57;;;;;;;2.53;2.33;;;;;;;9.94;74.38;101609.91;6299789;22;20410;-71
2021/11/06 04:12:22;;;;;;;2.85;2.40;;;;;;;9.96;74.33;101602.28;6301982;22;20017;-71
2021/11/06 04:14:48;;;;;;;5.60;2.40;;;;;;;9.91;74.24;101599.41;6301290;22;20007;-72
2021/11/06 04:17:13;;;;;;;7.15;2.85;;;;;;;9.93;74.26;101591.81;6326515;22;20448;-71
2021/11/06 04:19:39;;;;;;;7.28;3.17;;;;;;;9.97;74.26;101600.38;6300923;22;20109;-70
2021/11/06 04:22:05;;;;;;;2.65;2.53;;;;;;;10.02;74.30;101605.16;6303788;22;20057;-72
2021/11/06 04:24:30;;;;;;;3.55;3.10;;;;;;;10.04;73.67;101600.28;6302816;22;20007;-73
2021/11/06 04:26:56;;;;;;;7.93;3.00;;;;;;;9.98;74.39;101601.22;6305281;22;20011;-72
2021/11/06 04:29:26;;;;;;;3.22;2.35;;;;;;;9.99;74.37;101600.13;6302911;22;20346;-71
2021/11/06 04:32:03;;;;;;;;;;;;;;;;;;;;;
2021/11/06 04:34:38;;;;;;;5.22;2.50;;;;;;;10.04;74.64;101608.47;6304286;22;20375;-73
2021/11/06 04:37:05;;;;;;;5.05;1.80;;;;;;;10.02;73.85;101596.97;6328871;22;20027;-73
2021/11/06 04:39:33;;;;;;;2.53;1.75;;;;;;;9.93;74.48;101575.44;6302989;22;20004;-72
2021/11/06 04:41:59;;;;;;;2.08;1.83;;;;;;;10.03;74.50;101593.13;6306763;22;20031;-72
2021/11/06 04:44:25;;;;;;;2.45;2.25;;;;;;;9.93;74.60;101569.97;6301916;22;20483;-75
2021/11/06 04:46:50;;;;;;;2.20;2.05;;;;;;;9.94;74.82;101588.03;6318684;22;20025;-75
2021/11/06 04:49:19;;;;;;;2.33;2.10;;;;;;;9.94;74.35;101577.09;6328484;22;20509;-73
2021/11/06 04:51:44;;;;;;;2.25;2.15;;;;;;;9.96;75.13;101580.41;6301905;22;20003;-74
2021/11/06 04:54:10;;;;;;;5.32;1.90;;;;;;;9.98;74.77;101588.38;6309623;22;20101;-73
2021/11/06 04:56:36;;;;;;;1.80;1.70;;;;;;;9.95;74.89;101589.69;6301568;22;20104;-74
2021/11/06 04:59:01;;;;;;;4.45;2.50;;;;;;;9.90;75.05;101573.16;6320910;22;20022;-73
2021/11/06 05:01:29;;;;;;;2.17;1.70;;;;;;;9.87;74.63;101565.44;6302304;22;20087;-72
2021/11/06 05:04:19;;;;;;;4.03;1.67;;;;;;;9.87;74.94;101559.97;6302032;22;20010;-71
2021/11/06 05:06:44;;;;;;;1.42;1.33;;;;;;;9.82;74.79;101556.28;6276378;22;20042;-70
2021/11/06 05:09:12;;;;;;;4.25;1.60;;;;;;;9.86;75.24;101552.84;6304048;22;20106;-71
2021/11/06 05:11:37;;;;;;;1.80;1.60;;;;;;;9.90;75.13;101566.84;6303625;22;20338;-72
2021/11/06 05:14:03;;;;;;;1.48;1.38;;;;;;;9.88;75.16;101566.25;6303437;22;20007;-71
2021/11/06 05:16:31;;;;;;;4.70;1.20;;;;;;;9.94;75.16;101576.25;6276979;22;20043;-71
2021/11/06 05:18:57;;;;;;;1.02;0.98;;;;;;;9.91;74.89;101566.63;6298366;22;20018;-73
2021/11/06 05:21:25;;;;;;;0.73;0.73;;;;;;;9.92;74.98;101562.81;6298911;22;20424;-71
2021/11/06 05:23:51;;;;;;;3.38;1.55;;;;;;;10.00;74.70;101569.84;6301911;22;20053;-72
2021/11/06 05:26:17;;;;;;;0.95;0.90;;;;;;;10.03;74.74;101568.56;6326796;22;20338;-73
2021/11/06 05:28:43;;;;;;;3.78;1.02;;;;;;;9.98;74.54;101558.31;6275798;22;20003;-72
2021/11/06 05:31:11;;;;;;;0.80;0.80;;;;;;;10.02;74.69;101561.44;6301204;22;20007;-72
2021/11/06 05:33:38;;;;;;;2.08;1.17;;;;;;;10.01;74.50;101567.97;6303000;22;20003;-72
2021/11/06 05:36:04;;;;;;;0.70;0.70;;;;;;;10.01;74.50;101570.69;6302464;22;20424;-72
2021/11/06 05:38:29;;;;;;;1.02;1.00;;;;;;;9.98;74.53;101571.16;6300882;22;20065;-72
2021/11/06 05:40:54;;;;;;;0.93;0.85;;;;;;;9.93;74.56;101567.22;6251925;22;20011;-70
2021/11/06 05:43:20;;;;;;;1.65;1.08;;;;;;;9.97;74.62;101570.31;6251894;22;20414;-72
2021/11/06 05:45:48;;;;;;;1.17;1.05;;;;;;;10.00;74.59;101572.56;6301838;22;20060;-73
2021/11/06 05:48:14;;;;;;;1.10;0.70;;;;;;;10.00;74.76;101563.56;6304456;22;20007;-71
2021/11/06 05:50:39;;;;;;;0.93;0.93;;;;;;;10.01;74.41;101566.06;6297790;22;20007;-71
2021/11/06 05:53:05;;;;;;;1.45;1.08;;;;;;;10.02;74.16;101561.44;6302743;22;20011;-73
2021/11/06 05:55:31;;;;;;;0.73;0.73;;;;;;;10.02;74.05;101566.91;6325802;22;20010;-72
2021/11/06 05:57:56;;;;;;;1.42;0.70;;;;;;;10.02;74.15;101566.91;6298118;22;20003;-71
2021/11/06 06:00:31;;;;;;;0.88;0.80;;;;;;;10.00;74.06;101558.91;6302879;22;20015;-71
2021/11/06 06:02:57;;;;;;;1.63;0.90;;;;;;;9.99;74.44;101550.94;6299576;22;20074;-73
2021/11/06 06:05:24;;;;;;;0.57;0.50;;;;;;;9.95;74.10;101550.59;6303327;22;20034;-72
2021/11/06 06:07:50;;;;;;;0.60;0.60;;;;;;;9.97;74.88;101543.00;6299010;22;20006;-73
2021/11/06 06:10:16;;;;;;;1.13;0.52;;;;;;;9.92;74.84;101543.69;6273899;22;20007;-71
2021/11/06 06:12:52;;;;;;;;;;;;;;;;;;;;;
2021/11/06 06:15:20;;;;;;;2.53;0.85;;;;;;;10.02;74.54;101550.50;6298017;22;20071;-72
2021/11/06 06:17:49;;;;;;;0.70;0.45;;;;;;;10.04;74.84;101537.44;6302498;22;20014;-73
2021/11/06 06:20:16;;;;;;;1.52;0.50;;;;;;;10.06;74.60;101543.47;6275630;22;20042;-73
2021/11/06 06:22:42;;;;;;;4.45;0.40;;;;;;;10.05;75.10;101539.09;6304789;22;20026;-73
2021/11/06 06:25:10;;;;;;;1.40;0.75;;;;;;;10.05;75.00;101541.84;6306048;22;20626;-74
2021/11/06 06:27:36;;;;;;;0.85;0.57;;;;;;;10.03;74.49;101530.28;6306222;22;20078;-73
2021/11/06 06:30:10;;;;;;;1.58;0.45;;;;;;;10.07;74.80;101536.97;6303369;22;20052;-72
2021/11/06 06:32:39;;;;;;;1.60;0.57;;;;;;;10.05;74.88;101533.63;6305719;22;19999;-81
2021/11/06 06:35:06;;;;;;;1.45;0.55;;;;;;;10.04;75.08;101542.91;6331857;22;20007;-74
2021/11/06 06:37:32;;;;;;;0.70;0.55;;;;;;;10.08;74.69;101544.09;6306785;22;20046;-75
2021/11/06 06:39:58;;;;;;;1.55;0.70;;;;;;;10.09;74.46;101545.75;6327555;22;20003;-71
2021/11/06 06:42:23;;;;;;;0.75;0.60;;;;;;;10.10;75.12;101548.25;6330321;22;20011;-73
2021/11/06 06:44:50;;;;;;;0.35;0.35;;;;;;;10.07;74.72;101536.97;6303772;22;20344;-73
2021/11/06 06:47:16;;;;;;;0.50;0.50;;;;;;;10.13;74.90;101553.25;6303188;22;19999;-74
2021/11/06 06:49:42;;;;;;;0.55;0.47;;;;;;;10.13;75.46;101553.25;6304012;22;20094;-72
2021/11/06 06:52:08;;;;;;;0.65;0.65;;;;;;;10.16;74.09;101545.66;6301611;22;20384;-72
2021/11/06 06:54:34;;;;;;;3.10;0.52;;;;;;;10.16;74.51;101553.84;6278106;22;20008;-72
2021/11/06 06:56:59;;;;;;;1.13;0.50;;;;;;;10.21;74.85;101559.44;6277278;22;20003;-73
2021/11/06 06:59:25;;;;;;;0.30;0.30;;;;;;;10.31;74.58;101556.97;6301283;22;20010;-71
2021/11/06 07:01:50;;;;;;;0.40;0.40;;;;;;;10.30;73.99;101553.38;6300991;22;20018;-71
2021/11/06 07:04:23;;;;;;;3.08;0.47;;;;;;;10.30;74.33;101552.56;6301214;22;20082;-73
2021/11/06 07:06:51;;;;;;;1.83;0.47;;;;;;;10.26;74.37;101554.91;6277407;22;20030;-76
2021/11/06 07:09:19;;;;;;;1.30;0.50;;;;;;;10.24;74.27;101551.59;6277180;22;20414;-73
2021/11/06 07:11:46;;;;;;;2.53;0.68;;;;;;;10.26;74.09;101546.72;6303285;22;20121;-80
2021/11/06 07:14:29;;;;;;;0.40;0.30;;;;;;;10.27;74.37;101548.38;6305934;22;20007;-72
2021/11/06 07:16:54;;;;;;;0.90;0.63;;;;;;;10.31;74.44;101538.66;6304302;22;20007;-73
2021/11/06 07:19:20;;;;;;;0.68;0.55;;;;;;;10.24;74.38;101524.25;6306291;22;20686;-73
2021/11/06 07:21:48;;;;;;;0.50;0.50;;;;;;;10.30;74.49;101553.38;6302904;22;20034;-73
2021/11/06 07:24:13;;;;;;;0.30;0.30;;;;;;;10.36;74.12;101545.34;6304176;22;20017;-75
2021/11/06 07:26:39;;;;;;;0.75;0.52;;;;;;;10.34;74.76;101548.31;6302533;22;20006;-74
2021/11/06 07:29:05;;;;;;;1.17;0.85;;;;;;;10.30;74.91;101549.81;6302177;22;20386;-72
2021/11/06 07:31:30;;;;;;;0.52;0.40;;;;;;;10.26;75.06;101546.72;6301753;22;20003;-70
2021/11/06 07:33:56;;;;;;;1.20;0.63;;;;;;;10.28;74.65;101543.78;6300958;22;20042;-71
2021/11/06 07:36:22;;;;;;;1.60;0.93;;;;;;;10.33;74.89;101546.59;6300196;22;20011;-71
2021/11/06 07:38:48;;;;;;;1.17;0.60;;;;;;;10.33;74.80;101551.25;6301998;22;20077;-71
2021/11/06 07:41:14;;;;;;;5.25;0.68;;;;;;;10.27;75.27;101548.38;6276351;22;20011;-70
2021/11/06 07:43:41;;;;;;;1.90;0.70;;;;;;;10.33;75.14;101556.72;6325267;22;20011;-70
2021/11/06 07:46:07;;;;;;;0.80;0.40;;;;;;;10.34;75.29;101548.31;6303330;22;20365;-70
2021/11/06 07:48:32;;;;;;;1.17;0.50;;;;;;;10.38;74.47;101548.66;6302937;22;20374;-71
2021/11/06 07:50:58;;;;;;;2.05;1.00;;;;;;;10.33;74.95;101548.53;6299390;22;20007;-74
2021/11/06 07:53:24;;;;;;;2.08;0.63;;;;;;;10.37;74.86;101553.31;6302564;22;20094;-72
2021/11/06 07:55:50;;;;;;;1.38;0.77;;;;;;;10.39;74.63;101553.06;6303537;22;20097;-74
2021/11/06 07:58:18;;;;;;;0.80;0.70;;;;;;;10.41;75.07;101554.50;6303952;22;20007;-78
2021/11/06 08:00:43;;;;;;;1.83;0.90;;;;;;;10.48;74.54;101560.69;6301742;22;20073;-75
2021/11/06 08:03:09;;;;;;;3.35;0.65;;;;;;;10.52;74.70;101544.63;6303042;22;20307;-76
2021/11/06 08:05:35;;;;;;;1.63;0.63;;;;;;;10.57;74.15;101574.84;6303840;22;20006;-74
2021/11/06 08:08:01;;;;;;;2.50;0.70;;;;;;;10.70;74.67;101562.78;6302858;22;20003;-71
2021/11/06 08:10:27;;;;;;;7.75;1.25;;;;;;;10.72;74.34;101559.81;6298916;22;20050;-73
2021/11/06 08:12:54;;;;;;;0.82;0.47;;;;;;;10.81;74.16;101569.34;6299768;22;20030;-72
2021/11/06 08:15:20;;;;;;;0.80;0.65;;;;;;;10.88;73.82;101564.59;6294386;22;20033;-71
2021/11/06 08:17:46;;;;;;;3.92;0.80;;;;;;;10.92;73.81;101565.78;6301804;22;20003;-71
2021/11/06 08:20:12;;;;;;;1.42;0.77;;;;;;;10.97;73.60;101574.06;6301136;22;20021;-72
2021/11/06 08:22:38;;;;;;;1.20;0.70;;;;;;;11.05;73.07;101585.72;6298419;22;20015;-72
2021/11/06 08:25:06;;;;;;;3.35;0.70;;;;;;;11.15;73.31;101580.47;6303440;22;20064;-73
2021/11/06 08:27:33;;;;;;;3.90;0.43;;;;;;;11.25;72.80;101579.84;6302861;22;20007;-71
2021/11/06 08:29:58;;;;;;;1.85;0.60;;;;;;;11.34;72.56;101572.91;6300929;22;20013;-73
2021/11/06 08:32:24;;;;;;;1.40;0.80;;;;;;;11.42;72.59;101574.44;6300926;22;20019;-73
2021/11/06 08:34:50;;;;;;;1.38;0.70;;;;;;;11.51;72.14;101567.50;6301228;22;20077;-73
2021/11/06 08:37:15;;;;;;;1.63;0.70;;;;;;;11.60;71.95;101576.16;6302162;22;20480;-71
2021/11/06 08:39:41;;;;;;;1.73;0.50;;;;;;;11.67;71.28;101572.19;6263787;22;20307;-72
2021/11/06 08:42:09;;;;;;;2.35;0.30;;;;;;;11.69;71.16;101561.81;6302606;22;20007;-73
2021/11/06 08:44:37;;;;;;;1.88;0.40;;;;;;;11.85;70.98;101568.41;6303255;22;20017;-74
2021/11/06 08:47:03;;;;;;;2.35;0.60;;;;;;;12.01;71.19;101571.47;6303410;22;20052;-73
2021/11/06 08:49:28;;;;;;;2.47;0.70;;;;;;;12.06;70.67;101571.53;6275419;22;20529;-73
2021/11/06 08:51:58;;;;;;;2.65;0.73;;;;;;;12.14;70.33;101570.31;6250655;22;20107;-73
2021/11/06 08:54:24;;;;;;;3.50;0.50;;;;;;;12.29;69.75;101566.97;6278321;22;20041;-73
2021/11/06 08:56:50;;;;;;;0.50;0.50;;;;;;;12.48;69.48;101571.13;6303146;22;20437;-73
2021/11/06 08:59:17;;;;;;;0.77;0.70;;;;;;;12.68;68.73;101567.84;6276084;22;20007;-72
2021/11/06 09:01:45;;;;;;;2.05;0.82;;;;;;;12.86;68.49;101565.91;6300539;22;20574;-73
2021/11/06 09:04:27;;;;;;;1.70;0.98;;;;;;;12.94;67.24;101559.97;6301101;22;20429;-73
2021/11/06 09:06:58;;;;;;;0.80;0.40;;;;;;;12.95;66.95;101558.06;6302027;22;20010;-74
2021/11/06 09:09:26;;;;;;;0.30;0.30;;;;;;;13.03;66.79;101569.44;6304515;22;20546;-74
2021/11/06 09:11:53;;;;;;;0.30;0.30;;;;;;;13.09;66.77;101560.16;6301541;22;20329;-72
2021/11/06 09:14:22;;;;;;;6.13;0.40;;;;;;;13.04;65.93;101559.25;6324399;22;20010;-72
2021/11/06 09:16:48;;;;;;;0.55;0.38;;;;;;;13.05;65.76;101581.00;6302260;22;19996;-73
2021/11/06 09:19:16;;;;;;;0.38;0.38;;;;;;;12.95;65.67;101564.38;6301938;22;20483;-73
2021/11/06 09:21:44;;;;;;;0.93;0.45;;;;;;;12.96;66.17;101560.53;6327798;22;20288;-72
2021/11/06 09:24:10;;;;;;;1.40;0.30;;;;;;;13.12;66.36;101569.00;6303812;22;20095;-71
2021/11/06 09:26:38;;;;;;;0.40;0.32;;;;;;;13.31;65.80;101584.06;6305064;22;20741;-73
2021/11/06 09:29:06;;;;;;;0.77;0.30;;;;;;;13.50;65.08;101570.03;6303092;22;20018;-75
2021/11/06 09:31:35;;;;;;;2.47;0.40;;;;;;;13.60;64.24;101561.88;6276643;22;20007;-73
2021/11/06 09:34:01;;;;;;;0.20;0.20;;;;;;;13.62;64.30;101559.69;6314125;22;20007;-76
2021/11/06 09:36:29;;;;;;;0.57;0.10;;;;;;;13.57;64.04;101548.66;6319192;22;20187;-73
2021/11/06 09:39:01;;;;;;;0.38;0.20;;;;;;;13.61;63.79;101560.81;6314847;22;20027;-74
2021/11/06 09:41:41;;;;;;;0.20;0.20;;;;;;;13.63;64.06;101564.13;6305611;22;20414;-74
2021/11/06 09:44:08;;;;;;;0.50;0.20;;;;;;;13.74;63.54;101582.38;6302683;22;20003;-73
2021/11/06 09:46:37;;;;;;;0.65;0.20;;;;;;;13.80;63.74;101569.53;6301594;22;20007;-75
2021/11/06 09:49:05;;;;;;;2.85;0.20;;;;;;;13.78;62.98;101585.44;6303655;22;19999;-73
2021/11/06 09:51:34;;;;;;;7.40;0.40;;;;;;;13.59;63.03;101568.47;6306426;22;20507;-75
2021/11/06 09:54:06;;;;;;;0.30;0.20;;;;;;;13.54;63.26;101582.16;6306992;22;20084;-74
2021/11/06 09:56:32;;;;;;;0.45;0.20;;;;;;;13.40;63.68;101566.09;6331666;22;20011;-74
2021/11/06 09:59:01;;;;;;;0.20;0.20;;;;;;;13.25;64.56;101565.84;6306725;22;20019;-73
2021/11/06 10:01:31;;;;;;;0.20;0.20;;;;;;;13.17;64.94;101571.78;6306269;22;20003;-75
2021/11/06 10:03:58;;;;;;;0.38;0.20;;;;;;;13.12;65.13;101566.25;6307915;22;19996;-75
2021/11/06 10:06:26;;;;;;;0.22;0.22;;;;;;;13.11;64.97;101562.66;6304738;22;20029;-75
2021/11/06 10:08:56;;;;;;;0.60;0.20;;;;;;;13.07;64.74;101551.38;6309023;22;20014;-79
2021/11/06 10:11:30;;;;;;;0.32;0.20;;;;;;;13.09;65.07;101571.16;6332276;22;20003;-78
2021/11/06 10:13:58;;;;;;;0.30;0.30;;;;;;;13.15;65.06;101563.00;6305906;22;19999;-75
2021/11/06 10:16:48;;;;;;;0.20;0.10;;;;;;;13.16;64.82;101548.19;6307805;22;20477;-75
2021/11/06 10:19:20;;;;;;;0.55;0.35;;;;;;;13.30;64.05;101543.94;6307724;22;20109;-76
2021/11/06 10:22:01;;;;;;;;;;;;;;;;;;;;;
2021/11/06 10:24:42;;;;;;;0.75;0.20;;;;;;;13.36;63.92;101531.97;6306862;22;20070;-76
2021/11/06 10:27:15;;;;;;;0.20;0.20;;;;;;;13.42;64.10;101541.09;6329758;22;20358;-77
2021/11/06 10:29:41;;;;;;;0.30;0.10;;;;;;;13.34;63.83;101528.63;6305238;22;20417;-75
2021/11/06 10:32:07;;;;;;;3.42;0.20;;;;;;;13.37;64.38;101521.78;6305702;22;20052;-73
2021/11/06 10:34:41;;;;;;;0.20;0.20;;;;;;;13.36;64.56;101520.97;6304780;22;20037;-76
2021/11/06 10:37:12;;;;;;;1.58;0.20;;;;;;;13.95;64.49;101522.91;6303942;22;20023;-74
2021/11/06 10:39:59;;;;;;;0.73;0.30;;;;;;;14.64;61.88;101534.16;6303463;22;20003;-76
2021/11/06 10:42:28;;;;;;;13.98;1.13;;;;;;;14.61;60.78;101529.16;6304723;22;20994;-76
2021/11/06 10:45:14;;;;;;;0.30;0.10;;;;;;;14.35;60.70;101512.47;6301122;22;20007;-76
2021/11/06 10:48:11;;;;;;;0.30;0.10;;;;;;;14.24;61.46;101514.34;6305436;22;19999;-76
2021/11/06 10:50:50;;;;;;;;;;;;;;;14.14;61.66;101509.59;6330108;22;20003;-79
2021/11/06 10:54:08;;;;;;;0.50;0.20;;;;;;;14.08;63.23;101493.31;6296657;22;19907;-77
2021/11/06 10:56:41;;;;;;;0.50;0.13;;;;;;;14.16;62.50;101490.06;6238382;22;20014;-79
2021/11/06 10:59:15;;;;;;;1.10;0.20;;;;;;;14.30;62.55;101495.94;6305779;22;20473;-78
2021/11/06 11:01:44;;;;;;;0.52;0.13;;;;;;;14.82;62.29;101478.66;6303575;22;20029;-78
2021/11/06 11:04:13;;;;;;;0.20;0.20;;;;;;;15.41;59.26;101465.59;6306875;22;20070;-75
2021/11/06 11:06:47;;;;;;;0.10;0.10;;;;;;;15.83;57.35;101474.75;6304389;22;20003;-75
2021/11/06 11:09:14;;;;;;;0.30;0.20;;;;;;;15.79;57.28;101448.84;6309473;22;20372;-75
2021/11/06 11:11:40;;;;;;;0.20;0.10;;;;;;;15.91;57.07;101457.63;6322775;22;20076;-76
2021/11/06 11:14:15;;;;;;;0.25;0.13;;;;;;;15.97;56.69;101445.50;6350770;22;20011;-77
2021/11/06 11:17:07;;;;;;;1.95;0.20;;;;;;;15.92;56.03;101461.25;6326117;22;20024;-76
2021/11/06 11:19:44;;;;;;;0.05;0.00;;;;;;;15.75;56.44;101456.78;6315745;22;20010;-78
2021/11/06 11:22:31;;;;;;;0.65;0.10;;;;;;;15.84;56.45;101457.09;6307913;22;20007;-79
2021/11/06 11:25:03;;;;;;;0.13;0.10;;;;;;;15.97;55.47;101422.59;6334032;22;20031;-78
2021/11/06 11:27:32;;;;;;;0.13;0.13;;;;;;;16.17;54.82;101414.28;6309092;22;20422;-82
2021/11/06 11:29:57;;;;;;;0.50;0.20;;;;;;;16.10;54.73;101422.03;6308052;22;20003;-80
2021/11/06 11:32:40;;;;;;;;;;;;;;;;;;;;;
2021/11/06 11:35:17;;;;;;;;;;;;;;;;;;;;;
2021/11/06 11:37:43;;;;;;;0.80;0.20;;;;;;;15.29;57.30;101385.13;6305034;22;20091;-79
2021/11/06 11:40:09;;;;;;;0.10;0.10;;;;;;;15.19;57.39;101397.75;6277345;22;20113;-80